Le Boreal — FLSY — position and weather

sailwx.info

Track history (hours):
 
Tides and Currents Weather Stations Pressure Air Temp Water Temp Dewpoint Dewpoint Depression Visibility Wind Speed Wind Dir Waves Ship Positions

Le Boreal

Last reported at 2017-Apr-20 07:03 UTC. Time now 2017-Apr-25 12:32 UTC.
Position N 17°46' W 062°15'.

Length 140 m; draft 5.2 m.

Type: Passenger vessel. MMSI: 578000500.

Date/timePositionNaut miles runAvg speedWind from/ knotsBaromVisibWave heightAir tempDewpointWater temp
2017-Apr-20 07:03N 17°46' W 062°15'114.6
2017-Apr-20 06:58N 17°45' W 062°15'714.5
2017-Apr-20 06:30N 17°38' W 062°14'814.8
2017-Apr-20 05:58N 17°30' W 062°13'715.2
2017-Apr-20 05:30N 17°23' W 062°13'815.4
2017-Apr-20 05:00N 17°15' W 062°12'1015.3
2017-Apr-20 04:21N 17°06' W 062°10'515.5
2017-Apr-20 04:00N 17°01' W 062°09'815.7
2017-Apr-20 03:31N 16°53' W 062°06'815.7
2017-Apr-20 03:01N 16°46' W 062°04'815.5
2017-Apr-20 02:31N 16°38' W 062°01'815.4
2017-Apr-20 02:01N 16°31' W 061°59'815.1
2017-Apr-20 01:31N 16°24' W 061°56'815.3
2017-Apr-20 01:00N 16°17' W 061°54'1515.7
2017-Apr-20 00:05N 16°03' W 061°48'115.2
2017-Apr-19 23:59N 16°02' W 061°48'1215.3
2017-Apr-19 23:12N 15°51' W 061°43'315.3
2017-Apr-19 23:01N 15°48' W 061°42'815.8
2017-Apr-19 22:29N 15°40' W 061°39'  
2017-Apr-13 02:07N 09°31' W 079°50'1 8.0
2017-Apr-13 01:59N 09°30' W 079°51'4 9.3
2017-Apr-13 01:31N 09°27' W 079°54'5 9.4
2017-Apr-13 01:01N 09°22' W 079°54'1 1.3
2017-Apr-13 00:30N 09°21' W 079°53'0 0.0
2017-Apr-13 00:01N 09°21' W 079°53'0 0.0
2017-Apr-12 23:31N 09°21' W 079°53'0 0.0
2017-Apr-12 22:59N 09°21' W 079°53'0 0.0
2017-Apr-12 22:29N 09°21' W 079°53'0 0.0
2017-Apr-12 21:59N 09°22' W 079°53'0 0.0
2017-Apr-12 21:29N 09°21' W 079°53'0 0.0
2017-Apr-12 20:59N 09°21' W 079°53'0 0.0
2017-Apr-12 20:29N 09°21' W 079°53'0 0.0
2017-Apr-12 19:59N 09°21' W 079°53'0 0.0
2017-Apr-12 19:26N 09°21' W 079°53'0 0.0
2017-Apr-12 18:59N 09°21' W 079°53'0 0.0
2017-Apr-12 18:29N 09°21' W 079°53'0 0.0
2017-Apr-12 17:59N 09°21' W 079°53'0 0.0
2017-Apr-12 17:29N 09°21' W 079°53'0 0.0
2017-Apr-12 16:53N 09°21' W 079°53'0 0.0
2017-Apr-12 16:26N 09°21' W 079°53'0 0.0
2017-Apr-12 15:59N 09°21' W 079°53'0 0.0
2017-Apr-12 15:29N 09°21' W 079°53'0 0.0
2017-Apr-12 14:59N 09°21' W 079°53'0 0.0
2017-Apr-12 14:29N 09°21' W 079°53'0 0.0
2017-Apr-12 13:29N 09°21' W 079°53'0 0.0
2017-Apr-12 12:59N 09°21' W 079°53'0 0.0
2017-Apr-12 12:29N 09°21' W 079°53'0 0.0
2017-Apr-12 11:59N 09°21' W 079°53'0 0.0
2017-Apr-12 11:29N 09°21' W 079°53'0 0.0
2017-Apr-12 10:59N 09°21' W 079°53'0 0.0
2017-Apr-12 10:29N 09°21' W 079°53'0 0.0
2017-Apr-12 09:59N 09°21' W 079°53'0 0.0
2017-Apr-12 09:29N 09°21' W 079°53'0 0.0
2017-Apr-12 08:59N 09°21' W 079°53'0 0.0
2017-Apr-12 08:29N 09°21' W 079°53'0 0.0
2017-Apr-12 07:59N 09°21' W 079°53'0 0.0
2017-Apr-12 07:29N 09°21' W 079°53'0 0.0
2017-Apr-12 06:59N 09°21' W 079°53'0 0.0
2017-Apr-12 06:14N 09°21' W 079°53'0 0.0
2017-Apr-12 05:59N 09°21' W 079°53'0 0.0
2017-Apr-12 05:29N 09°21' W 079°53'0 0.0
2017-Apr-12 04:59N 09°21' W 079°53'0 0.0
2017-Apr-12 04:29N 09°21' W 079°53'0 0.0
2017-Apr-12 03:59N 09°21' W 079°53'0 0.0
2017-Apr-12 03:29N 09°21' W 079°53'0 0.0
2017-Apr-12 02:59N 09°21' W 079°53'0 0.0
2017-Apr-12 02:29N 09°21' W 079°53'0 0.0
2017-Apr-12 01:59N 09°21' W 079°53'0 0.0
2017-Apr-12 01:29N 09°21' W 079°53'0 0.0
2017-Apr-12 00:59N 09°21' W 079°53'0 0.0
2017-Apr-12 00:29N 09°21' W 079°53'0 0.0
2017-Apr-11 23:56N 09°21' W 079°53'0 0.0
2017-Apr-11 23:29N 09°21' W 079°53'0 0.0
2017-Apr-11 22:59N 09°21' W 079°53'5 1.2
2017-Apr-11 18:38N 09°16' W 079°55'0 1.0
2017-Apr-11 18:26N 09°16' W 079°55'1 1.1
2017-Apr-11 17:59N 09°16' W 079°55'0 0.9
2017-Apr-11 17:30N 09°15' W 079°55'2 2.9
2017-Apr-11 16:52N 09°14' W 079°55'  
Track history (hours):
 
Tides and Currents Weather Stations Pressure Air Temp Water Temp Dewpoint Dewpoint Depression Visibility Wind Speed Wind Dir Waves Ship Positions

Le Boreal

Last reported at 2017-Apr-20 07:03 UTC. Time now 2017-Apr-25 12:32 UTC.
Position N 17°46' W 062°15'.

Length 140 m; draft 5.2 m.

Type: Passenger vessel. MMSI: 578000500.

Date/timePositionNaut miles runAvg speedWind from/ knotsBaromVisibWave heightAir tempDewpointWater temp
2017-Apr-20 07:03N 17°46' W 062°15'114.6
2017-Apr-20 06:58N 17°45' W 062°15'714.5
2017-Apr-20 06:30N 17°38' W 062°14'814.8
2017-Apr-20 05:58N 17°30' W 062°13'715.2
2017-Apr-20 05:30N 17°23' W 062°13'815.4
2017-Apr-20 05:00N 17°15' W 062°12'1015.3
2017-Apr-20 04:21N 17°06' W 062°10'515.5
2017-Apr-20 04:00N 17°01' W 062°09'815.7
2017-Apr-20 03:31N 16°53' W 062°06'815.7
2017-Apr-20 03:01N 16°46' W 062°04'815.5
2017-Apr-20 02:31N 16°38' W 062°01'815.4
2017-Apr-20 02:01N 16°31' W 061°59'815.1
2017-Apr-20 01:31N 16°24' W 061°56'815.3
2017-Apr-20 01:00N 16°17' W 061°54'1515.7
2017-Apr-20 00:05N 16°03' W 061°48'115.2
2017-Apr-19 23:59N 16°02' W 061°48'1215.3
2017-Apr-19 23:12N 15°51' W 061°43'315.3
2017-Apr-19 23:01N 15°48' W 061°42'815.8
2017-Apr-19 22:29N 15°40' W 061°39'  
2017-Apr-13 02:07N 09°31' W 079°50'1 8.0
2017-Apr-13 01:59N 09°30' W 079°51'4 9.3
2017-Apr-13 01:31N 09°27' W 079°54'5 9.4
2017-Apr-13 01:01N 09°22' W 079°54'1 1.3
2017-Apr-13 00:30N 09°21' W 079°53'0 0.0
2017-Apr-13 00:01N 09°21' W 079°53'0 0.0
2017-Apr-12 23:31N 09°21' W 079°53'0 0.0
2017-Apr-12 22:59N 09°21' W 079°53'0 0.0
2017-Apr-12 22:29N 09°21' W 079°53'0 0.0
2017-Apr-12 21:59N 09°22' W 079°53'0 0.0
2017-Apr-12 21:29N 09°21' W 079°53'0 0.0
2017-Apr-12 20:59N 09°21' W 079°53'0 0.0
2017-Apr-12 20:29N 09°21' W 079°53'0 0.0
2017-Apr-12 19:59N 09°21' W 079°53'0 0.0
2017-Apr-12 19:26N 09°21' W 079°53'0 0.0
2017-Apr-12 18:59N 09°21' W 079°53'0 0.0
2017-Apr-12 18:29N 09°21' W 079°53'0 0.0
2017-Apr-12 17:59N 09°21' W 079°53'0 0.0
2017-Apr-12 17:29N 09°21' W 079°53'0 0.0
2017-Apr-12 16:53N 09°21' W 079°53'0 0.0
2017-Apr-12 16:26N 09°21' W 079°53'0 0.0
2017-Apr-12 15:59N 09°21' W 079°53'0 0.0
2017-Apr-12 15:29N 09°21' W 079°53'0 0.0
2017-Apr-12 14:59N 09°21' W 079°53'0 0.0
2017-Apr-12 14:29N 09°21' W 079°53'0 0.0
2017-Apr-12 13:29N 09°21' W 079°53'0 0.0
2017-Apr-12 12:59N 09°21' W 079°53'0 0.0
2017-Apr-12 12:29N 09°21' W 079°53'0 0.0
2017-Apr-12 11:59N 09°21' W 079°53'0 0.0
2017-Apr-12 11:29N 09°21' W 079°53'0 0.0
2017-Apr-12 10:59N 09°21' W 079°53'0 0.0
2017-Apr-12 10:29N 09°21' W 079°53'0 0.0
2017-Apr-12 09:59N 09°21' W 079°53'0 0.0
2017-Apr-12 09:29N 09°21' W 079°53'0 0.0
2017-Apr-12 08:59N 09°21' W 079°53'0 0.0
2017-Apr-12 08:29N 09°21' W 079°53'0 0.0
2017-Apr-12 07:59N 09°21' W 079°53'0 0.0
2017-Apr-12 07:29N 09°21' W 079°53'0 0.0
2017-Apr-12 06:59N 09°21' W 079°53'0 0.0
2017-Apr-12 06:14N 09°21' W 079°53'0 0.0
2017-Apr-12 05:59N 09°21' W 079°53'0 0.0
2017-Apr-12 05:29N 09°21' W 079°53'0 0.0
2017-Apr-12 04:59N 09°21' W 079°53'0 0.0
2017-Apr-12 04:29N 09°21' W 079°53'0 0.0
2017-Apr-12 03:59N 09°21' W 079°53'0 0.0
2017-Apr-12 03:29N 09°21' W 079°53'0 0.0
2017-Apr-12 02:59N 09°21' W 079°53'0 0.0
2017-Apr-12 02:29N 09°21' W 079°53'0 0.0
2017-Apr-12 01:59N 09°21' W 079°53'0 0.0
2017-Apr-12 01:29N 09°21' W 079°53'0 0.0
2017-Apr-12 00:59N 09°21' W 079°53'0 0.0
2017-Apr-12 00:29N 09°21' W 079°53'0 0.0
2017-Apr-11 23:56N 09°21' W 079°53'0 0.0
2017-Apr-11 23:29N 09°21' W 079°53'0 0.0
2017-Apr-11 22:59N 09°21' W 079°53'5 1.2
2017-Apr-11 18:38N 09°16' W 079°55'0 1.0
2017-Apr-11 18:26N 09°16' W 079°55'1 1.1
2017-Apr-11 17:59N 09°16' W 079°55'0 0.9
2017-Apr-11 17:30N 09°15' W 079°55'2 2.9
2017-Apr-11 16:52N 09°14' W 079°55'  

Dump ship's entire track history